Terminal Aerodrome Forecast
Issued by NWS

Home | Current Version | Previous Version | Text Only | Print | Product List | Glossary On
Versions: 1 2 3 4 5 6 7 8 9 10 11 12 13 14 15 16 17 18
000
FTUS43 KIND 221100
TAFBMG
TAF
KBMG 221135Z 2212/2312 04003KT P6SM SKC
     FM221600 05005KT P6SM FEW035
     FM222300 VRB02KT P6SM SKC
      AMD LTD TO CLD VIS AND WIND TIL 221300=

USA.gov is the U.S. government's official web portal to all federal, state and local government web resources and services.